Date,TemperatureHighF,TemperatureAvgF,TemperatureLowF,DewpointHighF,DewpointAvgF,DewpointLowF,HumidityHigh,HumidityAvg,HumidityLow,PressureMaxIn,PressureMinIn,WindSpeedMaxMPH,WindSpeedAvgMPH,GustSpeedMaxMPH,PrecipitationSumIn
2013-8-1,86,73,65,65,60,53,95,66,37,29.94,29.86,5,2,10,0.00
2013-8-2,86,73,56,65,60,53,91,66,44,29.96,29.80,7,2,12,0.00
2013-8-3,86,74,65,70,64,60,92,74,50,29.94,29.88,3,1,8,0.00
2013-8-4,84,72,56,59,55,51,82,57,34,29.91,29.77,5,2,8,0.00
2013-8-5,86,70,54,61,56,51,92,65,36,29.92,29.78,4,1,6,0.00
2013-8-6,83,74,65,67,63,56,83,67,56,29.96,29.85,5,1,7,0.00
2013-8-7,87,77,68,74,70,64,96,80,62,30.00,29.91,5,1,7,0.00
2013-8-8,88,77,69,75,71,67,96,82,61,30.02,29.96,5,1,8,0.00
2013-8-9,85,75,67,73,70,66,98,87,61,29.99,29.91,4,1,6,0.00
2013-8-10,90,81,70,71,69,66,88,67,49,29.97,29.92,0,0,0,0.00
2013-8-11,89,77,66,73,66,62,96,71,45,29.98,29.91,4,1,6,0.00
2013-8-12,87,76,62,70,67,60,93,75,56,29.92,29.83,5,1,8,0.00
2013-8-13,80,72,61,69,61,48,93,69,50,29.92,29.82,5,2,10,0.00
2013-8-14,78,64,50,53,49,46,89,60,38,29.85,29.80,5,1,5,0.00
2013-8-15,79,66,48,57,52,45,91,65,41,29.83,29.77,3,0,6,0.00
2013-8-16,85,71,53,58,54,49,87,57,31,29.89,29.79,4,1,4,0.00
2013-8-17,86,70,57,61,56,52,83,64,38,29.91,29.78,3,0,3,0.00
2013-8-18,87,74,58,63,59,55,93,63,38,29.90,29.76,2,0,4,0.00
2013-8-19,92,76,58,64,60,55,93,62,34,29.91,29.78,2,0,4,0.00
2013-8-20,91,80,60,67,62,58,92,60,37,29.91,29.79,4,2,7,0.00
2013-8-21,91,77,65,72,68,62,91,75,51,29.95,29.85,4,0,11,0.00
2013-8-22,91,78,67,72,68,63,96,74,48,29.96,29.91,7,1,9,0.14
2013-8-23,90,74,63,71,66,61,97,78,49,29.95,29.86,0,0,2,0.24
2013-8-24,93,74,58,66,61,55,89,67,37,29.92,29.80,1,0,5,0.00
2013-8-25,94,82,66,66,60,54,83,51,29,30.07,29.93,3,1,5,0.00
2013-8-26,92,78,60,71,66,56,90,70,46,30.08,29.94,5,1,12,0.00
2013-8-27,93,82,68,76,71,66,95,71,54,30.10,30.03,3,1,7,0.00
2013-8-28,95,83,72,73,70,68,90,68,42,30.11,30.03,7,3,16,0.00
2013-8-29,92,80,69,72,69,64,95,71,47,30.11,30.02,2,0,5,0.00
2013-8-30,94,80,65,71,67,63,94,68,41,30.08,30.02,4,1,7,0.00
2013-8-31,97,78,68,75,70,64,94,79,47,30.10,30.01,7,2,11,0.34